sensor_id;sensor_type;location;lat;lon;timestamp;temperature;humidity
23633;DHT22;11993;48.748;9.166;2024-01-30T00:02:14;7.60;59.70
23633;DHT22;11993;48.748;9.166;2024-01-30T00:04:40;7.40;60.30
23633;DHT22;11993;48.748;9.166;2024-01-30T00:07:05;7.10;61.50
23633;DHT22;11993;48.748;9.166;2024-01-30T00:09:31;7.20;61.50
23633;DHT22;11993;48.748;9.166;2024-01-30T00:11:56;7.10;62.00
23633;DHT22;11993;48.748;9.166;2024-01-30T00:14:22;7.10;62.00
23633;DHT22;11993;48.748;9.166;2024-01-30T00:16:48;7.00;62.50
23633;DHT22;11993;48.748;9.166;2024-01-30T00:19:14;6.90;62.90
23633;DHT22;11993;48.748;9.166;2024-01-30T00:21:39;7.00;62.70
23633;DHT22;11993;48.748;9.166;2024-01-30T00:24:05;6.90;63.20
23633;DHT22;11993;48.748;9.166;2024-01-30T00:26:30;6.90;63.00
23633;DHT22;11993;48.748;9.166;2024-01-30T00:28:56;6.90;62.90
23633;DHT22;11993;48.748;9.166;2024-01-30T00:31:22;7.00;62.90
23633;DHT22;11993;48.748;9.166;2024-01-30T00:33:47;6.90;63.10
23633;DHT22;11993;48.748;9.166;2024-01-30T00:36:13;6.80;63.40
23633;DHT22;11993;48.748;9.166;2024-01-30T00:38:38;6.90;63.50
23633;DHT22;11993;48.748;9.166;2024-01-30T00:41:04;6.80;63.70
23633;DHT22;11993;48.748;9.166;2024-01-30T00:43:30;6.90;63.40
23633;DHT22;11993;48.748;9.166;2024-01-30T00:45:56;6.90;63.80
23633;DHT22;11993;48.748;9.166;2024-01-30T00:48:23;6.90;63.80
23633;DHT22;11993;48.748;9.166;2024-01-30T00:50:48;6.80;64.20
23633;DHT22;11993;48.748;9.166;2024-01-30T00:53:14;6.90;63.90
23633;DHT22;11993;48.748;9.166;2024-01-30T00:55:40;6.80;64.20
23633;DHT22;11993;48.748;9.166;2024-01-30T00:58:05;6.80;64.00
23633;DHT22;11993;48.748;9.166;2024-01-30T01:00:32;6.90;64.00
23633;DHT22;11993;48.748;9.166;2024-01-30T01:03:01;6.80;64.10
23633;DHT22;11993;48.748;9.166;2024-01-30T01:05:26;6.90;63.70
23633;DHT22;11993;48.748;9.166;2024-01-30T01:07:52;6.70;64.20
23633;DHT22;11993;48.748;9.166;2024-01-30T01:10:18;6.80;64.20
23633;DHT22;11993;48.748;9.166;2024-01-30T01:12:47;6.90;63.80
23633;DHT22;11993;48.748;9.166;2024-01-30T01:15:13;6.90;63.70
23633;DHT22;11993;48.748;9.166;2024-01-30T01:17:39;6.90;63.90
23633;DHT22;11993;48.748;9.166;2024-01-30T01:20:06;6.70;64.30
23633;DHT22;11993;48.748;9.166;2024-01-30T01:22:32;6.80;63.90
23633;DHT22;11993;48.748;9.166;2024-01-30T01:25:01;6.80;63.90
23633;DHT22;11993;48.748;9.166;2024-01-30T01:27:27;6.80;63.90
23633;DHT22;11993;48.748;9.166;2024-01-30T01:29:53;6.70;64.20
23633;DHT22;11993;48.748;9.166;2024-01-30T01:32:19;6.70;64.40
23633;DHT22;11993;48.748;9.166;2024-01-30T01:34:45;6.60;64.50
23633;DHT22;11993;48.748;9.166;2024-01-30T01:37:11;6.60;64.80
23633;DHT22;11993;48.748;9.166;2024-01-30T01:39:37;6.70;64.60
23633;DHT22;11993;48.748;9.166;2024-01-30T01:42:02;6.70;64.20
23633;DHT22;11993;48.748;9.166;2024-01-30T01:44:28;6.60;64.20
23633;DHT22;11993;48.748;9.166;2024-01-30T01:46:54;6.70;64.10
23633;DHT22;11993;48.748;9.166;2024-01-30T01:49:20;6.80;63.70
23633;DHT22;11993;48.748;9.166;2024-01-30T01:51:47;6.80;64.10
23633;DHT22;11993;48.748;9.166;2024-01-30T01:54:14;6.80;64.00
23633;DHT22;11993;48.748;9.166;2024-01-30T01:56:42;6.90;63.70
23633;DHT22;11993;48.748;9.166;2024-01-30T01:59:08;6.80;63.90
23633;DHT22;11993;48.748;9.166;2024-01-30T02:01:38;6.80;63.90
23633;DHT22;11993;48.748;9.166;2024-01-30T02:04:07;6.70;64.10
23633;DHT22;11993;48.748;9.166;2024-01-30T02:06:34;6.60;64.50
23633;DHT22;11993;48.748;9.166;2024-01-30T02:08:59;6.40;64.90
23633;DHT22;11993;48.748;9.166;2024-01-30T02:11:25;6.60;64.60
23633;DHT22;11993;48.748;9.166;2024-01-30T02:13:50;6.60;64.50
23633;DHT22;11993;48.748;9.166;2024-01-30T02:16:16;6.40;65.20
23633;DHT22;11993;48.748;9.166;2024-01-30T02:18:45;6.30;65.40
23633;DHT22;11993;48.748;9.166;2024-01-30T02:21:17;6.20;65.70
23633;DHT22;11993;48.748;9.166;2024-01-30T02:23:44;6.20;65.90
23633;DHT22;11993;48.748;9.166;2024-01-30T02:26:11;6.20;66.00
23633;DHT22;11993;48.748;9.166;2024-01-30T02:28:37;6.30;65.70
23633;DHT22;11993;48.748;9.166;2024-01-30T02:31:03;6.20;65.80
23633;DHT22;11993;48.748;9.166;2024-01-30T02:33:29;6.20;65.70
23633;DHT22;11993;48.748;9.166;2024-01-30T02:35:54;6.10;66.10
23633;DHT22;11993;48.748;9.166;2024-01-30T02:38:20;6.20;65.80
23633;DHT22;11993;48.748;9.166;2024-01-30T02:40:46;6.20;65.60
23633;DHT22;11993;48.748;9.166;2024-01-30T02:43:12;6.20;65.60
23633;DHT22;11993;48.748;9.166;2024-01-30T02:45:37;6.20;65.40
23633;DHT22;11993;48.748;9.166;2024-01-30T02:48:03;6.20;65.30
23633;DHT22;11993;48.748;9.166;2024-01-30T02:50:29;6.50;64.70
23633;DHT22;11993;48.748;9.166;2024-01-30T02:52:54;6.40;64.90
23633;DHT22;11993;48.748;9.166;2024-01-30T02:55:20;6.40;64.90
23633;DHT22;11993;48.748;9.166;2024-01-30T02:57:45;6.40;64.80
23633;DHT22;11993;48.748;9.166;2024-01-30T03:00:11;6.20;65.50
23633;DHT22;11993;48.748;9.166;2024-01-30T03:02:37;6.20;65.40
23633;DHT22;11993;48.748;9.166;2024-01-30T03:05:04;6.10;66.00
23633;DHT22;11993;48.748;9.166;2024-01-30T03:07:30;6.10;66.00
23633;DHT22;11993;48.748;9.166;2024-01-30T03:09:55;6.20;65.80
23633;DHT22;11993;48.748;9.166;2024-01-30T03:12:22;6.00;66.00
23633;DHT22;11993;48.748;9.166;2024-01-30T03:14:47;6.10;65.90
23633;DHT22;11993;48.748;9.166;2024-01-30T03:17:13;6.00;66.30
23633;DHT22;11993;48.748;9.166;2024-01-30T03:19:39;5.90;66.50
23633;DHT22;11993;48.748;9.166;2024-01-30T03:22:04;6.00;66.00
23633;DHT22;11993;48.748;9.166;2024-01-30T03:24:30;5.90;66.40
23633;DHT22;11993;48.748;9.166;2024-01-30T03:26:56;5.70;67.10
23633;DHT22;11993;48.748;9.166;2024-01-30T03:29:21;5.80;66.70
23633;DHT22;11993;48.748;9.166;2024-01-30T03:31:47;5.80;66.70
23633;DHT22;11993;48.748;9.166;2024-01-30T03:34:13;5.70;67.00
23633;DHT22;11993;48.748;9.166;2024-01-30T03:36:38;5.70;67.00
23633;DHT22;11993;48.748;9.166;2024-01-30T03:39:04;5.70;66.90
23633;DHT22;11993;48.748;9.166;2024-01-30T03:41:30;5.70;67.00
23633;DHT22;11993;48.748;9.166;2024-01-30T03:43:55;5.90;66.60
23633;DHT22;11993;48.748;9.166;2024-01-30T03:46:21;5.70;66.90
23633;DHT22;11993;48.748;9.166;2024-01-30T03:48:47;5.60;67.50
23633;DHT22;11993;48.748;9.166;2024-01-30T03:51:12;5.50;67.50
23633;DHT22;11993;48.748;9.166;2024-01-30T03:53:42;5.60;67.00
23633;DHT22;11993;48.748;9.166;2024-01-30T03:56:08;5.40;67.70
23633;DHT22;11993;48.748;9.166;2024-01-30T03:58:34;5.50;67.60
23633;DHT22;11993;48.748;9.166;2024-01-30T04:00:59;5.40;68.20
23633;DHT22;11993;48.748;9.166;2024-01-30T04:03:25;5.10;68.70
23633;DHT22;11993;48.748;9.166;2024-01-30T04:05:52;5.10;69.10
23633;DHT22;11993;48.748;9.166;2024-01-30T04:08:18;5.10;69.20
23633;DHT22;11993;48.748;9.166;2024-01-30T04:10:43;5.20;69.20
23633;DHT22;11993;48.748;9.166;2024-01-30T04:13:09;5.10;69.10
23633;DHT22;11993;48.748;9.166;2024-01-30T04:15:35;5.30;68.40
23633;DHT22;11993;48.748;9.166;2024-01-30T04:18:00;5.20;68.20
23633;DHT22;11993;48.748;9.166;2024-01-30T04:20:26;5.50;67.10
23633;DHT22;11993;48.748;9.166;2024-01-30T04:22:52;5.40;67.20
23633;DHT22;11993;48.748;9.166;2024-01-30T04:25:17;5.40;67.60
23633;DHT22;11993;48.748;9.166;2024-01-30T04:27:43;5.30;68.00
23633;DHT22;11993;48.748;9.166;2024-01-30T04:30:09;5.20;68.10
23633;DHT22;11993;48.748;9.166;2024-01-30T04:32:35;5.30;68.30
23633;DHT22;11993;48.748;9.166;2024-01-30T04:35:01;5.20;68.30
23633;DHT22;11993;48.748;9.166;2024-01-30T04:37:26;5.20;68.20
23633;DHT22;11993;48.748;9.166;2024-01-30T04:39:52;5.20;68.50
23633;DHT22;11993;48.748;9.166;2024-01-30T04:42:17;5.00;69.20
23633;DHT22;11993;48.748;9.166;2024-01-30T04:44:43;4.70;70.30
23633;DHT22;11993;48.748;9.166;2024-01-30T04:47:08;4.70;70.90
23633;DHT22;11993;48.748;9.166;2024-01-30T04:49:36;4.40;71.80
23633;DHT22;11993;48.748;9.166;2024-01-30T04:52:02;4.50;71.70
23633;DHT22;11993;48.748;9.166;2024-01-30T04:54:27;4.60;71.50
23633;DHT22;11993;48.748;9.166;2024-01-30T04:56:53;4.50;72.00
23633;DHT22;11993;48.748;9.166;2024-01-30T04:59:18;4.50;71.60
23633;DHT22;11993;48.748;9.166;2024-01-30T05:01:44;4.70;71.00
23633;DHT22;11993;48.748;9.166;2024-01-30T05:04:10;4.90;70.30
23633;DHT22;11993;48.748;9.166;2024-01-30T05:06:36;4.90;70.60
23633;DHT22;11993;48.748;9.166;2024-01-30T05:09:02;5.00;70.20
23633;DHT22;11993;48.748;9.166;2024-01-30T05:11:30;4.90;70.20
23633;DHT22;11993;48.748;9.166;2024-01-30T05:13:55;5.10;69.50
23633;DHT22;11993;48.748;9.166;2024-01-30T05:16:21;4.80;70.40
23633;DHT22;11993;48.748;9.166;2024-01-30T05:18:46;4.90;70.60
23633;DHT22;11993;48.748;9.166;2024-01-30T05:21:12;4.70;70.80
23633;DHT22;11993;48.748;9.166;2024-01-30T05:23:37;4.80;70.80
23633;DHT22;11993;48.748;9.166;2024-01-30T05:26:03;4.60;71.20
23633;DHT22;11993;48.748;9.166;2024-01-30T05:28:29;4.70;71.20
23633;DHT22;11993;48.748;9.166;2024-01-30T05:30:56;4.60;71.70
23633;DHT22;11993;48.748;9.166;2024-01-30T05:33:21;4.60;71.50
23633;DHT22;11993;48.748;9.166;2024-01-30T05:35:47;4.60;71.00
23633;DHT22;11993;48.748;9.166;2024-01-30T05:38:14;4.50;71.50
23633;DHT22;11993;48.748;9.166;2024-01-30T05:40:40;4.60;71.50
23633;DHT22;11993;48.748;9.166;2024-01-30T05:43:06;4.50;71.90
23633;DHT22;11993;48.748;9.166;2024-01-30T05:45:31;4.40;72.20
23633;DHT22;11993;48.748;9.166;2024-01-30T05:47:57;4.50;71.90
23633;DHT22;11993;48.748;9.166;2024-01-30T05:50:22;4.60;71.50
23633;DHT22;11993;48.748;9.166;2024-01-30T05:52:48;4.60;71.00
23633;DHT22;11993;48.748;9.166;2024-01-30T05:55:14;4.70;71.00
23633;DHT22;11993;48.748;9.166;2024-01-30T05:57:40;4.70;70.90
23633;DHT22;11993;48.748;9.166;2024-01-30T06:00:06;4.80;70.50
23633;DHT22;11993;48.748;9.166;2024-01-30T06:02:33;4.70;70.30
23633;DHT22;11993;48.748;9.166;2024-01-30T06:04:58;4.70;70.30
23633;DHT22;11993;48.748;9.166;2024-01-30T06:07:24;4.90;69.60
23633;DHT22;11993;48.748;9.166;2024-01-30T06:09:49;4.90;69.20
23633;DHT22;11993;48.748;9.166;2024-01-30T06:12:15;5.00;68.80
23633;DHT22;11993;48.748;9.166;2024-01-30T06:14:41;5.10;68.30
23633;DHT22;11993;48.748;9.166;2024-01-30T06:17:08;5.00;68.50
23633;DHT22;11993;48.748;9.166;2024-01-30T06:19:33;5.00;68.60
23633;DHT22;11993;48.748;9.166;2024-01-30T06:21:59;5.00;68.40
23633;DHT22;11993;48.748;9.166;2024-01-30T06:24:25;5.10;68.00
23633;DHT22;11993;48.748;9.166;2024-01-30T06:26:50;5.10;68.10
23633;DHT22;11993;48.748;9.166;2024-01-30T06:29:16;5.20;67.50
23633;DHT22;11993;48.748;9.166;2024-01-30T06:31:42;5.20;67.30
23633;DHT22;11993;48.748;9.166;2024-01-30T06:34:11;5.30;67.40
23633;DHT22;11993;48.748;9.166;2024-01-30T06:36:37;5.30;67.10
23633;DHT22;11993;48.748;9.166;2024-01-30T06:39:03;5.30;67.40
23633;DHT22;11993;48.748;9.166;2024-01-30T06:41:29;5.30;67.10
23633;DHT22;11993;48.748;9.166;2024-01-30T06:43:55;5.30;66.60
23633;DHT22;11993;48.748;9.166;2024-01-30T06:46:21;5.40;66.50
23633;DHT22;11993;48.748;9.166;2024-01-30T06:48:46;5.40;65.70
23633;DHT22;11993;48.748;9.166;2024-01-30T06:51:12;5.50;65.50
23633;DHT22;11993;48.748;9.166;2024-01-30T06:53:38;5.60;65.40
23633;DHT22;11993;48.748;9.166;2024-01-30T06:56:04;5.50;65.00
23633;DHT22;11993;48.748;9.166;2024-01-30T06:58:30;5.60;65.20
23633;DHT22;11993;48.748;9.166;2024-01-30T07:00:56;5.50;65.10
23633;DHT22;11993;48.748;9.166;2024-01-30T07:03:21;5.40;65.20
23633;DHT22;11993;48.748;9.166;2024-01-30T07:05:47;5.60;65.90
23633;DHT22;11993;48.748;9.166;2024-01-30T07:08:13;5.60;65.70
23633;DHT22;11993;48.748;9.166;2024-01-30T07:10:38;5.60;64.90
23633;DHT22;11993;48.748;9.166;2024-01-30T07:13:04;5.60;64.50
23633;DHT22;11993;48.748;9.166;2024-01-30T07:15:31;5.60;64.20
23633;DHT22;11993;48.748;9.166;2024-01-30T07:17:56;5.70;63.60
23633;DHT22;11993;48.748;9.166;2024-01-30T07:20:22;5.80;63.10
23633;DHT22;11993;48.748;9.166;2024-01-30T07:22:47;5.70;63.80
23633;DHT22;11993;48.748;9.166;2024-01-30T07:25:13;5.90;63.20
23633;DHT22;11993;48.748;9.166;2024-01-30T07:27:39;5.90;63.00
23633;DHT22;11993;48.748;9.166;2024-01-30T07:30:05;6.10;63.70
23633;DHT22;11993;48.748;9.166;2024-01-30T07:32:31;6.10;63.10
23633;DHT22;11993;48.748;9.166;2024-01-30T07:34:57;6.20;62.10
23633;DHT22;11993;48.748;9.166;2024-01-30T07:37:22;6.10;63.00
23633;DHT22;11993;48.748;9.166;2024-01-30T07:39:48;6.10;63.20
23633;DHT22;11993;48.748;9.166;2024-01-30T07:42:13;6.10;62.80
23633;DHT22;11993;48.748;9.166;2024-01-30T07:44:39;6.10;62.90
23633;DHT22;11993;48.748;9.166;2024-01-30T07:47:05;6.10;62.60
23633;DHT22;11993;48.748;9.166;2024-01-30T07:49:31;6.20;62.60
23633;DHT22;11993;48.748;9.166;2024-01-30T07:51:56;6.10;63.10
23633;DHT22;11993;48.748;9.166;2024-01-30T07:54:22;6.10;63.00
23633;DHT22;11993;48.748;9.166;2024-01-30T07:56:48;6.20;63.40
23633;DHT22;11993;48.748;9.166;2024-01-30T07:59:14;6.20;62.90
23633;DHT22;11993;48.748;9.166;2024-01-30T08:01:40;6.00;63.20
23633;DHT22;11993;48.748;9.166;2024-01-30T08:04:05;6.00;64.10
23633;DHT22;11993;48.748;9.166;2024-01-30T08:06:31;6.10;64.00
23633;DHT22;11993;48.748;9.166;2024-01-30T08:08:56;5.90;64.80
23633;DHT22;11993;48.748;9.166;2024-01-30T08:11:24;5.90;65.10
23633;DHT22;11993;48.748;9.166;2024-01-30T08:13:55;6.10;64.10
23633;DHT22;11993;48.748;9.166;2024-01-30T08:16:20;6.50;63.60
23633;DHT22;11993;48.748;9.166;2024-01-30T08:18:46;6.60;62.50
23633;DHT22;11993;48.748;9.166;2024-01-30T08:21:11;6.80;61.20
23633;DHT22;11993;48.748;9.166;2024-01-30T08:23:40;6.90;61.00
23633;DHT22;11993;48.748;9.166;2024-01-30T08:26:06;7.00;61.00
23633;DHT22;11993;48.748;9.166;2024-01-30T08:28:32;7.40;59.50
23633;DHT22;11993;48.748;9.166;2024-01-30T08:30:57;7.40;59.70
23633;DHT22;11993;48.748;9.166;2024-01-30T08:33:23;7.60;58.50
23633;DHT22;11993;48.748;9.166;2024-01-30T08:35:48;7.90;58.40
23633;DHT22;11993;48.748;9.166;2024-01-30T08:38:14;7.90;57.90
23633;DHT22;11993;48.748;9.166;2024-01-30T08:40:39;8.40;57.10
23633;DHT22;11993;48.748;9.166;2024-01-30T08:43:05;8.40;56.20
23633;DHT22;11993;48.748;9.166;2024-01-30T08:45:30;8.30;55.90
23633;DHT22;11993;48.748;9.166;2024-01-30T08:47:56;8.90;55.10
23633;DHT22;11993;48.748;9.166;2024-01-30T08:50:22;8.80;55.60
23633;DHT22;11993;48.748;9.166;2024-01-30T08:52:47;8.70;55.00
23633;DHT22;11993;48.748;9.166;2024-01-30T08:55:13;9.20;54.00
23633;DHT22;11993;48.748;9.166;2024-01-30T08:57:39;9.20;54.30
23633;DHT22;11993;48.748;9.166;2024-01-30T09:00:06;9.30;53.60
23633;DHT22;11993;48.748;9.166;2024-01-30T09:02:34;9.20;54.60
23633;DHT22;11993;48.748;9.166;2024-01-30T09:05:00;9.20;54.10
23633;DHT22;11993;48.748;9.166;2024-01-30T09:07:25;9.60;54.00
23633;DHT22;11993;48.748;9.166;2024-01-30T09:09:51;9.70;53.70
23633;DHT22;11993;48.748;9.166;2024-01-30T09:12:16;9.90;53.30
23633;DHT22;11993;48.748;9.166;2024-01-30T09:14:42;10.10;52.50
23633;DHT22;11993;48.748;9.166;2024-01-30T09:17:08;10.60;51.70
23633;DHT22;11993;48.748;9.166;2024-01-30T09:19:34;10.70;51.10
23633;DHT22;11993;48.748;9.166;2024-01-30T09:21:59;10.80;51.20
23633;DHT22;11993;48.748;9.166;2024-01-30T09:24:26;10.90;51.10
23633;DHT22;11993;48.748;9.166;2024-01-30T09:26:52;11.20;50.40
23633;DHT22;11993;48.748;9.166;2024-01-30T09:29:17;11.00;50.20
23633;DHT22;11993;48.748;9.166;2024-01-30T09:31:44;11.00;50.80
23633;DHT22;11993;48.748;9.166;2024-01-30T09:34:10;11.10;50.40
23633;DHT22;11993;48.748;9.166;2024-01-30T09:36:36;10.60;51.20
23633;DHT22;11993;48.748;9.166;2024-01-30T09:39:01;10.90;51.20
23633;DHT22;11993;48.748;9.166;2024-01-30T09:41:27;11.10;49.70
23633;DHT22;11993;48.748;9.166;2024-01-30T09:43:54;11.20;50.40
23633;DHT22;11993;48.748;9.166;2024-01-30T09:46:27;11.20;50.40
23633;DHT22;11993;48.748;9.166;2024-01-30T09:48:55;11.10;50.50
23633;DHT22;11993;48.748;9.166;2024-01-30T09:51:21;11.40;49.80
23633;DHT22;11993;48.748;9.166;2024-01-30T09:53:48;11.70;49.40
23633;DHT22;11993;48.748;9.166;2024-01-30T09:56:14;11.90;49.10
23633;DHT22;11993;48.748;9.166;2024-01-30T09:58:40;11.90;47.90
23633;DHT22;11993;48.748;9.166;2024-01-30T10:01:05;11.40;48.90
23633;DHT22;11993;48.748;9.166;2024-01-30T10:03:31;11.60;48.70
23633;DHT22;11993;48.748;9.166;2024-01-30T10:05:57;11.70;48.70
23633;DHT22;11993;48.748;9.166;2024-01-30T10:08:22;12.20;47.70
23633;DHT22;11993;48.748;9.166;2024-01-30T10:10:49;11.90;48.10
23633;DHT22;11993;48.748;9.166;2024-01-30T10:13:15;11.70;48.60
23633;DHT22;11993;48.748;9.166;2024-01-30T10:15:41;11.80;47.80
23633;DHT22;11993;48.748;9.166;2024-01-30T10:18:08;11.60;48.30
23633;DHT22;11993;48.748;9.166;2024-01-30T10:20:35;11.90;48.10
23633;DHT22;11993;48.748;9.166;2024-01-30T10:23:01;11.70;48.10
23633;DHT22;11993;48.748;9.166;2024-01-30T10:25:27;11.60;48.90
23633;DHT22;11993;48.748;9.166;2024-01-30T10:27:55;11.70;48.90
23633;DHT22;11993;48.748;9.166;2024-01-30T10:30:25;11.90;47.90
23633;DHT22;11993;48.748;9.166;2024-01-30T10:32:51;11.70;48.10
23633;DHT22;11993;48.748;9.166;2024-01-30T10:35:16;11.90;48.60
23633;DHT22;11993;48.748;9.166;2024-01-30T10:37:47;11.90;48.00
23633;DHT22;11993;48.748;9.166;2024-01-30T10:40:14;12.00;48.10
23633;DHT22;11993;48.748;9.166;2024-01-30T10:42:43;12.10;47.80
23633;DHT22;11993;48.748;9.166;2024-01-30T10:45:11;12.10;48.30
23633;DHT22;11993;48.748;9.166;2024-01-30T10:47:44;12.00;48.10
23633;DHT22;11993;48.748;9.166;2024-01-30T10:50:13;11.90;48.00
23633;DHT22;11993;48.748;9.166;2024-01-30T10:52:40;12.00;47.80
23633;DHT22;11993;48.748;9.166;2024-01-30T10:55:07;12.10;48.10
23633;DHT22;11993;48.748;9.166;2024-01-30T10:57:34;12.00;47.70
23633;DHT22;11993;48.748;9.166;2024-01-30T11:00:12;11.90;47.50
23633;DHT22;11993;48.748;9.166;2024-01-30T11:02:47;12.10;47.80
23633;DHT22;11993;48.748;9.166;2024-01-30T11:05:13;12.10;47.80
23633;DHT22;11993;48.748;9.166;2024-01-30T11:07:41;12.10;47.50
23633;DHT22;11993;48.748;9.166;2024-01-30T11:10:07;12.00;47.90
23633;DHT22;11993;48.748;9.166;2024-01-30T11:12:38;12.10;48.00
23633;DHT22;11993;48.748;9.166;2024-01-30T11:15:14;12.20;47.70
23633;DHT22;11993;48.748;9.166;2024-01-30T11:17:44;12.20;47.70
23633;DHT22;11993;48.748;9.166;2024-01-30T11:20:19;12.30;47.00
23633;DHT22;11993;48.748;9.166;2024-01-30T11:22:46;12.20;47.60
23633;DHT22;11993;48.748;9.166;2024-01-30T11:25:16;12.30;47.80
23633;DHT22;11993;48.748;9.166;2024-01-30T11:27:46;12.10;48.20
23633;DHT22;11993;48.748;9.166;2024-01-30T11:30:27;12.30;47.60
23633;DHT22;11993;48.748;9.166;2024-01-30T11:33:04;12.20;47.50
23633;DHT22;11993;48.748;9.166;2024-01-30T11:38:00;12.20;48.10
23633;DHT22;11993;48.748;9.166;2024-01-30T11:40:31;12.30;47.70
23633;DHT22;11993;48.748;9.166;2024-01-30T11:42:59;12.60;47.60
23633;DHT22;11993;48.748;9.166;2024-01-30T11:45:25;12.20;47.90
23633;DHT22;11993;48.748;9.166;2024-01-30T11:47:51;12.40;48.00
23633;DHT22;11993;48.748;9.166;2024-01-30T11:50:17;12.30;47.90
23633;DHT22;11993;48.748;9.166;2024-01-30T11:52:43;12.40;48.00
23633;DHT22;11993;48.748;9.166;2024-01-30T11:55:09;12.60;47.70
23633;DHT22;11993;48.748;9.166;2024-01-30T11:57:35;12.50;47.80
23633;DHT22;11993;48.748;9.166;2024-01-30T12:00:03;12.40;47.50
23633;DHT22;11993;48.748;9.166;2024-01-30T12:02:33;12.40;47.50
23633;DHT22;11993;48.748;9.166;2024-01-30T12:05:04;12.60;47.70
23633;DHT22;11993;48.748;9.166;2024-01-30T12:07:30;12.50;47.70
23633;DHT22;11993;48.748;9.166;2024-01-30T12:09:56;12.60;47.80
23633;DHT22;11993;48.748;9.166;2024-01-30T12:12:24;12.60;47.80
23633;DHT22;11993;48.748;9.166;2024-01-30T12:14:53;12.40;48.00
23633;DHT22;11993;48.748;9.166;2024-01-30T12:17:32;12.50;48.00
23633;DHT22;11993;48.748;9.166;2024-01-30T12:20:12;12.50;47.80
23633;DHT22;11993;48.748;9.166;2024-01-30T12:22:40;12.70;47.50
23633;DHT22;11993;48.748;9.166;2024-01-30T12:25:13;12.70;47.50
23633;DHT22;11993;48.748;9.166;2024-01-30T12:27:44;12.70;47.20
23633;DHT22;11993;48.748;9.166;2024-01-30T12:30:11;12.70;47.40
23633;DHT22;11993;48.748;9.166;2024-01-30T12:32:44;12.70;47.20
23633;DHT22;11993;48.748;9.166;2024-01-30T12:35:10;12.80;47.30
23633;DHT22;11993;48.748;9.166;2024-01-30T12:37:36;12.80;47.20
23633;DHT22;11993;48.748;9.166;2024-01-30T12:40:02;13.00;46.80
23633;DHT22;11993;48.748;9.166;2024-01-30T12:42:28;13.10;47.10
23633;DHT22;11993;48.748;9.166;2024-01-30T12:44:54;13.10;46.40
23633;DHT22;11993;48.748;9.166;2024-01-30T12:47:21;13.30;46.20
23633;DHT22;11993;48.748;9.166;2024-01-30T12:49:47;13.50;45.50
23633;DHT22;11993;48.748;9.166;2024-01-30T12:52:16;14.00;45.30
23633;DHT22;11993;48.748;9.166;2024-01-30T12:54:41;14.10;45.00
23633;DHT22;11993;48.748;9.166;2024-01-30T12:57:07;14.20;44.10
23633;DHT22;11993;48.748;9.166;2024-01-30T12:59:33;14.20;44.20
23633;DHT22;11993;48.748;9.166;2024-01-30T13:02:00;14.20;44.20
23633;DHT22;11993;48.748;9.166;2024-01-30T13:04:26;14.30;44.40
23633;DHT22;11993;48.748;9.166;2024-01-30T13:06:52;14.60;44.70
23633;DHT22;11993;48.748;9.166;2024-01-30T13:09:18;14.60;43.50
23633;DHT22;11993;48.748;9.166;2024-01-30T13:11:43;14.80;43.00
23633;DHT22;11993;48.748;9.166;2024-01-30T13:14:09;14.90;42.90
23633;DHT22;11993;48.748;9.166;2024-01-30T13:16:34;14.90;42.60
23633;DHT22;11993;48.748;9.166;2024-01-30T13:19:00;15.60;41.90
23633;DHT22;11993;48.748;9.166;2024-01-30T13:21:30;16.00;40.30
23633;DHT22;11993;48.748;9.166;2024-01-30T13:23:55;16.40;39.70
23633;DHT22;11993;48.748;9.166;2024-01-30T13:26:21;16.10;40.10
23633;DHT22;11993;48.748;9.166;2024-01-30T13:28:46;15.90;40.30
23633;DHT22;11993;48.748;9.166;2024-01-30T13:31:13;15.80;40.60
23633;DHT22;11993;48.748;9.166;2024-01-30T13:33:39;15.90;40.70
23633;DHT22;11993;48.748;9.166;2024-01-30T13:36:06;15.40;41.30
23633;DHT22;11993;48.748;9.166;2024-01-30T13:38:32;15.90;40.50
23633;DHT22;11993;48.748;9.166;2024-01-30T13:40:58;15.70;41.10
23633;DHT22;11993;48.748;9.166;2024-01-30T13:43:23;15.50;41.50
23633;DHT22;11993;48.748;9.166;2024-01-30T13:45:49;15.20;42.60
23633;DHT22;11993;48.748;9.166;2024-01-30T13:48:14;15.00;42.80
23633;DHT22;11993;48.748;9.166;2024-01-30T13:50:40;15.10;43.00
23633;DHT22;11993;48.748;9.166;2024-01-30T13:53:06;15.50;42.80
23633;DHT22;11993;48.748;9.166;2024-01-30T13:55:31;15.30;42.40
23633;DHT22;11993;48.748;9.166;2024-01-30T13:57:57;15.20;42.10
23633;DHT22;11993;48.748;9.166;2024-01-30T14:00:23;15.00;43.00
23633;DHT22;11993;48.748;9.166;2024-01-30T14:02:52;15.20;42.60
23633;DHT22;11993;48.748;9.166;2024-01-30T14:05:20;15.10;42.80
23633;DHT22;11993;48.748;9.166;2024-01-30T14:07:46;14.80;43.40
23633;DHT22;11993;48.748;9.166;2024-01-30T14:10:12;14.60;43.50
23633;DHT22;11993;48.748;9.166;2024-01-30T14:12:38;14.50;43.90
23633;DHT22;11993;48.748;9.166;2024-01-30T14:15:04;14.50;44.30
23633;DHT22;11993;48.748;9.166;2024-01-30T14:17:31;14.60;43.80
23633;DHT22;11993;48.748;9.166;2024-01-30T14:19:57;14.60;43.90
23633;DHT22;11993;48.748;9.166;2024-01-30T14:22:22;14.50;44.30
23633;DHT22;11993;48.748;9.166;2024-01-30T14:24:49;14.10;44.90
23633;DHT22;11993;48.748;9.166;2024-01-30T14:27:15;14.10;45.30
23633;DHT22;11993;48.748;9.166;2024-01-30T14:29:40;14.00;45.90
23633;DHT22;11993;48.748;9.166;2024-01-30T14:32:07;14.00;45.60
23633;DHT22;11993;48.748;9.166;2024-01-30T14:34:34;14.10;45.60
23633;DHT22;11993;48.748;9.166;2024-01-30T14:37:00;14.40;45.60
23633;DHT22;11993;48.748;9.166;2024-01-30T14:39:26;14.10;44.90
23633;DHT22;11993;48.748;9.166;2024-01-30T14:41:51;13.90;45.40
23633;DHT22;11993;48.748;9.166;2024-01-30T14:44:17;13.90;45.60
23633;DHT22;11993;48.748;9.166;2024-01-30T14:46:42;13.70;46.10
23633;DHT22;11993;48.748;9.166;2024-01-30T14:49:09;13.90;46.60
23633;DHT22;11993;48.748;9.166;2024-01-30T14:51:35;13.60;48.90
23633;DHT22;11993;48.748;9.166;2024-01-30T14:54:00;13.30;50.00
23633;DHT22;11993;48.748;9.166;2024-01-30T14:56:27;12.90;51.20
23633;DHT22;11993;48.748;9.166;2024-01-30T14:58:52;12.90;52.20
23633;DHT22;11993;48.748;9.166;2024-01-30T15:01:18;12.90;51.90
23633;DHT22;11993;48.748;9.166;2024-01-30T15:03:44;12.80;52.00
23633;DHT22;11993;48.748;9.166;2024-01-30T15:06:12;12.50;52.90
23633;DHT22;11993;48.748;9.166;2024-01-30T15:08:38;12.40;53.40
23633;DHT22;11993;48.748;9.166;2024-01-30T15:11:04;12.30;53.50
23633;DHT22;11993;48.748;9.166;2024-01-30T15:13:30;12.10;54.10
23633;DHT22;11993;48.748;9.166;2024-01-30T15:15:56;12.00;54.60
23633;DHT22;11993;48.748;9.166;2024-01-30T15:18:22;11.80;55.20
23633;DHT22;11993;48.748;9.166;2024-01-30T15:20:47;11.70;55.50
23633;DHT22;11993;48.748;9.166;2024-01-30T15:23:12;11.40;56.90
23633;DHT22;11993;48.748;9.166;2024-01-30T15:25:39;11.50;56.60
23633;DHT22;11993;48.748;9.166;2024-01-30T15:28:05;11.50;56.40
23633;DHT22;11993;48.748;9.166;2024-01-30T15:30:30;11.60;56.50
23633;DHT22;11993;48.748;9.166;2024-01-30T15:32:56;11.60;56.20
23633;DHT22;11993;48.748;9.166;2024-01-30T15:35:21;11.70;55.50
23633;DHT22;11993;48.748;9.166;2024-01-30T15:37:47;11.40;56.60